Time;durP1;ratioP1;P1;durP2;ratioP2;P2;SDS_P1;SDS_P2;PMS_P1;PMS_P2;Temp;Humidity;BMP_temperature;BMP_pressure;BME280_temperature;BME280_humidity;BME280_pressure;Samples;Min_cycle;Max_cycle;Signal;HPM_P1;HPM_P2
2023/07/02 00:02:09;;;;;;;3.73;3.43;;;22.10;85.60;;;;;;5073040;28;20207;-73
2023/07/02 00:04:36;;;;;;;3.33;3.03;;;22.10;85.50;;;;;;5059632;28;20230;-72
2023/07/02 00:07:04;;;;;;;3.77;3.47;;;22.10;85.80;;;;;;5055155;28;20213;-72
2023/07/02 00:09:32;;;;;;;4.13;3.67;;;22.10;85.80;;;;;;5056861;28;20296;-72
2023/07/02 00:11:59;;;;;;;3.87;3.10;;;22.10;86.10;;;;;;5067388;28;20578;-73
2023/07/02 00:14:26;;;;;;;3.50;3.20;;;22.10;86.00;;;;;;5056867;28;20210;-73
2023/07/02 00:16:53;;;;;;;4.37;3.77;;;22.10;86.10;;;;;;5073028;28;20197;-73
2023/07/02 00:19:20;;;;;;;3.90;3.60;;;22.10;86.30;;;;;;5073859;28;20672;-72
2023/07/02 00:21:47;;;;;;;4.00;3.60;;;22.10;86.20;;;;;;5053628;28;20232;-73
2023/07/02 00:24:15;;;;;;;4.10;3.73;;;22.20;86.20;;;;;;5053664;28;20804;-73
2023/07/02 00:26:44;;;;;;;4.53;3.73;;;22.10;86.20;;;;;;5053841;28;20514;-73
2023/07/02 00:29:10;;;;;;;3.67;3.37;;;22.10;86.40;;;;;;5053535;28;20670;-72
2023/07/02 00:31:37;;;;;;;3.80;3.30;;;22.10;86.30;;;;;;5058134;28;20222;-72
2023/07/02 00:34:05;;;;;;;3.73;3.43;;;22.10;86.40;;;;;;5069912;28;20201;-72
2023/07/02 00:36:33;;;;;;;4.53;3.70;;;22.10;86.20;;;;;;5069638;28;20565;-72
2023/07/02 00:39:00;;;;;;;3.67;3.30;;;22.10;86.30;;;;;;5069262;28;20223;-74
2023/07/02 00:41:27;;;;;;;4.57;3.63;;;22.10;86.20;;;;;;5068873;28;20217;-73
2023/07/02 00:43:55;;;;;;;3.70;3.40;;;22.20;86.40;;;;;;5069527;28;20320;-73
2023/07/02 00:46:24;;;;;;;11.07;3.87;;;22.10;86.40;;;;;;5070360;28;20204;-74
2023/07/02 00:48:52;;;;;;;3.70;3.40;;;22.10;86.40;;;;;;5069069;28;20259;-73
2023/07/02 00:51:21;;;;;;;3.73;3.23;;;22.10;86.50;;;;;;5068512;28;20240;-73
2023/07/02 00:53:50;;;;;;;4.20;3.80;;;22.20;86.60;;;;;;5071517;28;20197;-72
2023/07/02 00:56:17;;;;;;;4.27;3.47;;;22.20;86.60;;;;;;5068120;28;20677;-72
2023/07/02 00:58:48;;;;;;;5.00;3.80;;;22.20;86.50;;;;;;5068010;28;20221;-72
2023/07/02 01:01:17;;;;;;;3.60;3.30;;;22.20;86.60;;;;;;5068175;28;20224;-72
2023/07/02 01:03:54;;;;;;;3.97;3.60;;;22.10;87.50;;;;;;5068326;28;20278;-73
2023/07/02 01:06:25;;;;;;;3.80;3.47;;;22.10;87.30;;;;;;5066709;28;20216;-73
2023/07/02 01:08:53;;;;;;;4.17;3.77;;;22.00;87.10;;;;;;5067970;28;20258;-73
2023/07/02 01:11:22;;;;;;;4.87;3.87;;;22.00;87.30;;;;;;5070144;28;20294;-73
2023/07/02 01:13:52;;;;;;;4.60;3.60;;;22.00;87.40;;;;;;5062864;28;20213;-73
2023/07/02 01:16:21;;;;;;;4.67;3.67;;;22.00;87.50;;;;;;5071609;28;20209;-73
2023/07/02 01:18:50;;;;;;;5.10;3.63;;;22.00;87.60;;;;;;5069890;28;20243;-72
2023/07/02 01:21:19;;;;;;;4.20;3.50;;;22.00;87.60;;;;;;5067115;28;20217;-73
2023/07/02 01:23:47;;;;;;;4.20;3.77;;;22.00;87.80;;;;;;5068977;28;20209;-73
2023/07/02 01:26:14;;;;;;;4.27;3.87;;;22.00;87.80;;;;;;5068527;28;20205;-73
2023/07/02 01:28:42;;;;;;;4.37;3.97;;;21.90;87.80;;;;;;5067065;28;20224;-73
2023/07/02 01:31:09;;;;;;;4.87;3.83;;;21.80;88.00;;;;;;5065845;28;20225;-74
2023/07/02 01:33:36;;;;;;;5.00;3.80;;;21.80;88.00;;;;;;5066155;28;20564;-73
2023/07/02 01:36:02;;;;;;;4.93;3.73;;;21.80;88.10;;;;;;5070704;28;20224;-73
2023/07/02 01:38:31;;;;;;;4.30;3.40;;;21.70;88.10;;;;;;5068504;28;20232;-73
2023/07/02 01:40:57;;;;;;;4.30;3.90;;;21.70;88.30;;;;;;5071818;28;20696;-73
2023/07/02 01:43:24;;;;;;;3.90;3.60;;;21.70;88.40;;;;;;5070175;28;20221;-73
2023/07/02 01:45:51;;;;;;;4.50;3.50;;;21.70;88.50;;;;;;5071574;28;20225;-73
2023/07/02 01:48:18;;;;;;;4.40;4.00;;;21.70;88.60;;;;;;5066387;28;20193;-73
2023/07/02 01:50:45;;;;;;;4.17;3.40;;;21.70;88.50;;;;;;5068604;28;20354;-73
2023/07/02 01:53:11;;;;;;;4.10;3.70;;;21.70;88.30;;;;;;5068210;28;20225;-73
2023/07/02 01:55:40;;;;;;;4.93;3.33;;;21.70;87.80;;;;;;5068477;28;20197;-73
2023/07/02 01:58:06;;;;;;;3.60;2.90;;;21.70;87.00;;;;;;5067918;28;20596;-74
2023/07/02 02:00:33;;;;;;;3.83;2.90;;;21.60;83.50;;;;;;5067799;28;20282;-73
2023/07/02 02:03:00;;;;;;;3.50;2.97;;;21.50;84.80;;;;;;5070694;28;20225;-73
2023/07/02 02:05:27;;;;;;;5.27;2.73;;;21.50;85.90;;;;;;5067338;28;20207;-73
2023/07/02 02:07:54;;;;;;;6.00;3.30;;;21.50;84.80;;;;;;5067622;28;20581;-73
2023/07/02 02:10:21;;;;;;;3.57;3.03;;;21.50;82.90;;;;;;5070294;28;20973;-74
2023/07/02 02:12:49;;;;;;;5.03;3.47;;;21.60;81.30;;;;;;5083286;28;20216;-73
2023/07/02 02:15:16;;;;;;;4.10;3.70;;;21.60;79.40;;;;;;5089572;28;20255;-73
2023/07/02 02:17:43;;;;;;;7.23;3.90;;;21.70;79.30;;;;;;5087232;28;21127;-73
2023/07/02 02:20:10;;;;;;;5.53;3.43;;;21.50;77.20;;;;;;5089751;28;20355;-73
2023/07/02 02:22:37;;;;;;;7.03;3.87;;;21.40;78.30;;;;;;5092118;28;20233;-74
2023/07/02 02:25:05;;;;;;;5.10;4.00;;;21.40;77.50;;;;;;5091815;28;20245;-73
2023/07/02 02:27:32;;;;;;;6.90;3.33;;;21.40;77.30;;;;;;5091599;28;20404;-73
2023/07/02 02:30:00;;;;;;;4.70;4.17;;;21.50;77.50;;;;;;5087504;28;20673;-75
2023/07/02 02:32:27;;;;;;;6.00;3.90;;;21.50;76.90;;;;;;5057743;28;20205;-73
2023/07/02 02:34:53;;;;;;;6.50;3.70;;;21.50;77.00;;;;;;5059336;28;20201;-73
2023/07/02 02:37:23;;;;;;;6.80;3.77;;;21.60;77.00;;;;;;5065704;28;20216;-73
2023/07/02 02:39:49;;;;;;;4.07;3.60;;;21.60;77.20;;;;;;5067154;28;20259;-73
2023/07/02 02:42:16;;;;;;;4.40;3.50;;;21.70;76.80;;;;;;5069442;28;20543;-73
2023/07/02 02:44:43;;;;;;;6.20;3.40;;;21.70;77.10;;;;;;5062146;28;20696;-73
2023/07/02 02:47:11;;;;;;;6.40;3.47;;;21.70;76.90;;;;;;5070310;28;20204;-73
2023/07/02 02:49:39;;;;;;;5.97;3.40;;;21.70;77.30;;;;;;5070330;28;20208;-73
2023/07/02 02:52:06;;;;;;;3.80;3.03;;;21.70;76.80;;;;;;5071248;28;20221;-73
2023/07/02 02:54:33;;;;;;;4.30;3.07;;;21.70;77.40;;;;;;5070186;28;20204;-73
2023/07/02 02:57:00;;;;;;;4.60;3.40;;;21.70;77.50;;;;;;5071500;28;20209;-73
2023/07/02 02:59:26;;;;;;;5.00;3.40;;;21.70;77.30;;;;;;5063920;28;20233;-73
2023/07/02 03:01:53;;;;;;;4.07;3.00;;;21.70;77.50;;;;;;5069272;28;20197;-73
2023/07/02 03:04:24;;;;;;;4.70;3.30;;;21.70;77.50;;;;;;5054559;28;20221;-72
2023/07/02 03:06:52;;;;;;;4.30;3.40;;;21.70;77.70;;;;;;5052168;28;20226;-73
2023/07/02 03:09:19;;;;;;;7.37;3.37;;;21.70;77.70;;;;;;5066807;28;20221;-73
2023/07/02 03:11:46;;;;;;;4.33;2.83;;;21.70;78.10;;;;;;5053880;28;20205;-72
2023/07/02 03:14:14;;;;;;;5.90;3.30;;;21.70;78.00;;;;;;5058186;28;20217;-73
2023/07/02 03:16:41;;;;;;;5.20;3.20;;;21.60;78.00;;;;;;5056781;28;20281;-73
2023/07/02 03:19:08;;;;;;;3.63;3.07;;;21.60;78.10;;;;;;5068506;28;20241;-72
2023/07/02 03:21:36;;;;;;;3.73;3.17;;;21.60;78.10;;;;;;5072056;28;20201;-73
2023/07/02 03:24:03;;;;;;;4.83;3.57;;;21.50;78.30;;;;;;5074493;28;20553;-73
2023/07/02 03:26:30;;;;;;;5.63;3.13;;;21.50;78.10;;;;;;5062825;28;20221;-72
2023/07/02 03:28:57;;;;;;;9.13;3.50;;;21.50;77.90;;;;;;5067973;28;20653;-73
2023/07/02 03:31:23;;;;;;;4.67;3.00;;;21.50;78.10;;;;;;5074559;28;20204;-73
2023/07/02 03:33:50;;;;;;;4.33;2.90;;;21.50;77.80;;;;;;5057777;28;20236;-72
2023/07/02 03:36:17;;;;;;;7.63;3.03;;;21.50;77.90;;;;;;5067365;28;20277;-73
2023/07/02 03:38:45;;;;;;;4.33;2.93;;;21.50;77.70;;;;;;5069110;28;20202;-72
2023/07/02 03:41:12;;;;;;;3.53;3.10;;;21.50;77.70;;;;;;5066029;28;20229;-72
2023/07/02 03:43:39;;;;;;;4.23;2.80;;;21.50;77.40;;;;;;5068621;28;20225;-72
2023/07/02 03:46:06;;;;;;;3.37;2.90;;;21.50;77.40;;;;;;5069852;28;20201;-72
2023/07/02 03:48:32;;;;;;;4.20;3.07;;;21.50;77.80;;;;;;5064884;28;20221;-72
2023/07/02 03:50:59;;;;;;;4.20;2.90;;;21.60;78.00;;;;;;5073164;28;20496;-73
2023/07/02 03:53:26;;;;;;;5.23;2.70;;;21.50;78.00;;;;;;5072938;28;20216;-72
2023/07/02 03:55:54;;;;;;;4.83;3.27;;;21.50;78.40;;;;;;5054307;28;20247;-72
2023/07/02 03:58:21;;;;;;;5.50;3.10;;;21.50;78.50;;;;;;5063527;28;20202;-72
2023/07/02 04:00:49;;;;;;;4.97;2.90;;;21.50;78.50;;;;;;5068031;28;20209;-72
2023/07/02 04:03:16;;;;;;;5.47;3.30;;;21.40;78.50;;;;;;5069892;28;20228;-72
2023/07/02 04:05:43;;;;;;;12.70;3.47;;;21.40;78.30;;;;;;5063844;28;20205;-72
2023/07/02 04:08:10;;;;;;;6.17;3.20;;;21.40;78.30;;;;;;5042856;28;20208;-72
2023/07/02 04:10:37;;;;;;;7.27;3.23;;;21.40;78.50;;;;;;5053941;28;20232;-72
2023/07/02 04:13:05;;;;;;;7.43;3.47;;;21.30;78.60;;;;;;5068552;28;20560;-71
2023/07/02 04:15:32;;;;;;;6.83;3.50;;;21.30;78.60;;;;;;5062052;28;20205;-71
2023/07/02 04:17:59;;;;;;;7.23;3.40;;;21.20;78.80;;;;;;5059245;28;20244;-71
2023/07/02 04:20:28;;;;;;;4.70;3.03;;;21.20;79.00;;;;;;5070922;28;20221;-71
2023/07/02 04:22:55;;;;;;;4.97;3.50;;;21.20;79.20;;;;;;5065919;28;20274;-72
2023/07/02 04:25:22;;;;;;;4.30;3.30;;;21.20;79.10;;;;;;5068073;28;20229;-71
2023/07/02 04:27:49;;;;;;;5.37;3.43;;;21.10;79.20;;;;;;5083136;28;20208;-72
2023/07/02 04:30:17;;;;;;;6.00;3.47;;;21.10;79.20;;;;;;5073649;28;20208;-73
2023/07/02 04:32:44;;;;;;;5.83;4.10;;;21.00;79.10;;;;;;5073152;28;20235;-72
2023/07/02 04:35:11;;;;;;;5.33;3.97;;;20.90;79.20;;;;;;5073503;28;20637;-72
2023/07/02 04:37:38;;;;;;;8.37;3.70;;;20.80;79.70;;;;;;5073479;28;20209;-72
2023/07/02 04:40:09;;;;;;;5.63;3.97;;;20.80;80.00;;;;;;5085896;28;20745;-72
2023/07/02 04:42:37;;;;;;;5.43;4.10;;;20.80;80.00;;;;;;5086318;28;20699;-72
2023/07/02 04:45:05;;;;;;;5.80;4.20;;;20.80;79.90;;;;;;5073175;28;20270;-72
2023/07/02 04:47:33;;;;;;;6.50;3.97;;;20.80;80.20;;;;;;5072778;28;20196;-72
2023/07/02 04:50:00;;;;;;;7.30;4.00;;;20.80;80.10;;;;;;5073093;28;20221;-72
2023/07/02 04:52:27;;;;;;;4.97;3.83;;;20.80;80.00;;;;;;5072228;28;20197;-72
2023/07/02 04:54:54;;;;;;;7.27;4.33;;;20.80;80.00;;;;;;5072470;28;20189;-73
2023/07/02 04:57:21;;;;;;;7.80;5.10;;;20.90;80.20;;;;;;5072852;28;20205;-72
2023/07/02 04:59:48;;;;;;;6.87;4.47;;;20.90;79.00;;;;;;5072242;28;20228;-72
2023/07/02 05:02:15;;;;;;;5.77;4.17;;;21.00;79.10;;;;;;5073002;28;20212;-72
2023/07/02 05:04:44;;;;;;;8.30;4.57;;;21.00;78.30;;;;;;5072683;28;20279;-72
2023/07/02 05:07:10;;;;;;;8.87;5.30;;;21.00;78.80;;;;;;5072402;28;20236;-71
2023/07/02 05:09:37;;;;;;;7.40;4.77;;;21.00;78.00;;;;;;5073132;28;20304;-72
2023/07/02 05:12:04;;;;;;;9.73;4.90;;;21.00;77.70;;;;;;5072839;28;20201;-72
2023/07/02 05:14:31;;;;;;;7.03;4.90;;;21.00;77.90;;;;;;5061126;28;20226;-72
2023/07/02 05:16:58;;;;;;;6.33;4.50;;;21.10;77.80;;;;;;5052896;28;20228;-72
2023/07/02 05:19:25;;;;;;;8.50;5.03;;;21.10;77.90;;;;;;5067427;28;20754;-72
2023/07/02 05:21:53;;;;;;;9.60;4.97;;;21.10;77.50;;;;;;5070983;28;20597;-71
2023/07/02 05:24:20;;;;;;;5.27;4.60;;;21.10;77.50;;;;;;5053944;28;20590;-72
2023/07/02 05:26:47;;;;;;;8.37;4.73;;;21.10;77.50;;;;;;5056586;28;20203;-71
2023/07/02 05:29:15;;;;;;;6.03;4.73;;;21.10;77.80;;;;;;5071335;28;20276;-72
2023/07/02 05:31:42;;;;;;;10.17;4.80;;;21.10;77.50;;;;;;5057332;28;20206;-72
2023/07/02 05:34:09;;;;;;;8.20;4.77;;;21.30;77.70;;;;;;5054214;28;20686;-71
2023/07/02 05:36:35;;;;;;;7.73;5.07;;;21.20;77.30;;;;;;5052318;28;20300;-71
2023/07/02 05:39:04;;;;;;;7.90;4.80;;;21.30;77.30;;;;;;5054514;28;20202;-71
2023/07/02 05:41:31;;;;;;;8.20;5.40;;;21.30;77.20;;;;;;5068944;28;20220;-71
2023/07/02 05:43:58;;;;;;;8.17;5.63;;;21.30;76.30;;;;;;5066394;28;20259;-73
2023/07/02 05:46:24;;;;;;;10.63;5.90;;;21.30;76.30;;;;;;5058949;28;20202;-72
2023/07/02 05:48:51;;;;;;;7.47;5.33;;;21.30;76.60;;;;;;5062365;28;20205;-71
2023/07/02 05:51:21;;;;;;;10.10;5.30;;;21.30;76.50;;;;;;5072549;28;20221;-72
2023/07/02 05:53:48;;;;;;;8.97;5.57;;;21.30;76.00;;;;;;5070486;28;20718;-72
2023/07/02 05:56:17;;;;;;;10.90;5.63;;;21.30;76.00;;;;;;5071673;28;20240;-71
2023/07/02 05:58:44;;;;;;;13.33;6.07;;;21.30;76.00;;;;;;5069975;28;20871;-71
2023/07/02 06:01:11;;;;;;;7.43;5.20;;;21.30;76.00;;;;;;5070697;28;20240;-71
2023/07/02 06:03:40;;;;;;;8.80;5.57;;;21.30;76.10;;;;;;5061323;28;20300;-71
2023/07/02 06:06:11;;;;;;;10.67;5.63;;;21.40;75.20;;;;;;5062191;28;20213;-71
2023/07/02 06:08:37;;;;;;;8.83;5.10;;;21.30;75.80;;;;;;5054446;28;20236;-71
2023/07/02 06:11:04;;;;;;;9.37;5.17;;;21.30;75.80;;;;;;5052190;28;20205;-71
2023/07/02 06:13:32;;;;;;;8.90;4.37;;;21.40;75.60;;;;;;5059767;28;20208;-72
2023/07/02 06:15:59;;;;;;;7.73;4.83;;;21.40;75.40;;;;;;5052105;28;20221;-71
2023/07/02 06:18:26;;;;;;;6.20;4.47;;;21.40;75.50;;;;;;5052828;28;20591;-72
2023/07/02 06:20:53;;;;;;;7.27;4.50;;;21.40;75.50;;;;;;5052027;28;20316;-71
2023/07/02 06:23:20;;;;;;;6.90;4.43;;;21.40;75.10;;;;;;5068628;28;20225;-71
2023/07/02 06:25:46;;;;;;;8.27;5.10;;;21.40;75.50;;;;;;5071506;28;20559;-71
2023/07/02 06:28:13;;;;;;;7.40;4.57;;;21.40;75.40;;;;;;5070013;28;20204;-71
2023/07/02 06:30:41;;;;;;;6.13;4.20;;;21.50;75.60;;;;;;5070910;28;20221;-72
2023/07/02 06:33:08;;;;;;;10.37;4.50;;;21.50;75.20;;;;;;5059443;28;20658;-71
2023/07/02 06:35:35;;;;;;;11.13;4.60;;;21.50;75.30;;;;;;5071869;28;20201;-72
2023/07/02 06:38:02;;;;;;;7.30;4.83;;;21.50;74.90;;;;;;5056093;28;20576;-71
2023/07/02 06:40:29;;;;;;;7.33;4.73;;;21.70;75.00;;;;;;5061045;28;20217;-72
2023/07/02 06:42:56;;;;;;;6.30;4.90;;;21.70;73.60;;;;;;5063374;28;20201;-72
2023/07/02 06:45:23;;;;;;;8.47;5.40;;;21.60;73.40;;;;;;5071654;28;20220;-73
2023/07/02 06:47:52;;;;;;;8.90;5.47;;;21.70;73.10;;;;;;5071061;28;20217;-72
2023/07/02 06:50:19;;;;;;;11.20;6.43;;;21.80;73.60;;;;;;5071627;28;20233;-72
2023/07/02 06:52:46;;;;;;;9.93;6.40;;;21.80;72.40;;;;;;5070840;28;20234;-71
2023/07/02 06:55:12;;;;;;;9.87;6.83;;;21.80;71.20;;;;;;5058127;28;20200;-73
2023/07/02 06:57:44;;;;;;;13.53;6.80;;;21.70;70.20;;;;;;5063999;28;20216;-72
2023/07/02 07:00:12;;;;;;;12.30;8.00;;;21.80;70.80;;;;;;5056609;28;20298;-72
2023/07/02 07:02:39;;;;;;;10.83;7.87;;;21.70;69.30;;;;;;5055130;28;20557;-72
2023/07/02 07:05:08;;;;;;;9.70;7.47;;;21.80;70.20;;;;;;5069315;28;20211;-71
2023/07/02 07:07:35;;;;;;;10.70;8.17;;;21.90;69.50;;;;;;5067621;28;20267;-70
2023/07/02 07:10:03;;;;;;;11.43;8.33;;;21.90;68.80;;;;;;5055202;28;20212;-72
2023/07/02 07:12:30;;;;;;;12.47;8.73;;;22.00;69.00;;;;;;5065349;28;20332;-71
2023/07/02 07:14:57;;;;;;;14.23;8.67;;;22.20;69.20;;;;;;5070491;28;20207;-72
2023/07/02 07:17:24;;;;;;;12.07;9.20;;;22.30;66.70;;;;;;5066933;28;20236;-72
2023/07/02 07:19:51;;;;;;;13.00;8.70;;;22.30;66.80;;;;;;5073557;28;20221;-72
2023/07/02 07:22:19;;;;;;;12.93;8.87;;;22.40;67.10;;;;;;5074198;28;20247;-71
2023/07/02 07:24:46;;;;;;;13.70;9.03;;;22.40;64.70;;;;;;5062960;28;20233;-72
2023/07/02 07:27:13;;;;;;;13.27;9.43;;;22.40;63.20;;;;;;5070822;28;20225;-72
2023/07/02 07:29:39;;;;;;;13.23;9.03;;;22.30;63.40;;;;;;5074259;28;20243;-72
2023/07/02 07:32:07;;;;;;;13.23;9.80;;;22.30;63.90;;;;;;5060932;28;20205;-72
2023/07/02 07:34:34;;;;;;;14.37;9.50;;;22.30;63.80;;;;;;5054849;28;20290;-71
2023/07/02 07:37:01;;;;;;;13.80;9.57;;;22.40;63.90;;;;;;5054684;28;20233;-72
2023/07/02 07:39:29;;;;;;;13.53;9.00;;;22.40;62.30;;;;;;5054760;28;20201;-72
2023/07/02 07:41:56;;;;;;;13.07;9.23;;;22.40;62.50;;;;;;5055885;28;20202;-72
2023/07/02 07:44:23;;;;;;;13.10;9.60;;;22.50;61.20;;;;;;5073914;28;20312;-72
2023/07/02 07:46:49;;;;;;;15.57;9.80;;;22.60;61.60;;;;;;5061663;28;20206;-71
2023/07/02 07:49:16;;;;;;;14.53;9.43;;;22.60;61.80;;;;;;5054462;28;20209;-71
2023/07/02 07:51:43;;;;;;;15.43;10.10;;;22.80;61.20;;;;;;5054743;28;20844;-71
2023/07/02 07:54:10;;;;;;;17.10;10.57;;;22.70;61.10;;;;;;5054479;28;20205;-72
2023/07/02 07:56:38;;;;;;;19.40;10.77;;;22.70;61.80;;;;;;5055757;28;20220;-72
2023/07/02 07:59:05;;;;;;;17.93;11.83;;;22.80;61.80;;;;;;5067127;28;20567;-72
2023/07/02 08:01:32;;;;;;;14.13;9.93;;;22.90;62.50;;;;;;5063390;28;20214;-72
2023/07/02 08:03:58;;;;;;;16.50;11.17;;;22.90;62.00;;;;;;5072228;28;20542;-72
2023/07/02 08:06:25;;;;;;;18.50;12.00;;;23.00;63.30;;;;;;5054964;28;20865;-72
2023/07/02 08:08:52;;;;;;;17.67;11.33;;;23.20;62.20;;;;;;5055243;28;20210;-72
2023/07/02 08:11:19;;;;;;;16.83;11.43;;;23.30;62.50;;;;;;5035017;28;20205;-72
2023/07/02 08:13:47;;;;;;;17.37;11.93;;;23.30;60.60;;;;;;5053656;28;20225;-72
2023/07/02 08:16:14;;;;;;;17.30;12.43;;;23.40;61.70;;;;;;5063864;28;20722;-72
2023/07/02 08:18:41;;;;;;;16.80;11.37;;;23.50;60.10;;;;;;5071951;28;20237;-71
2023/07/02 08:21:07;;;;;;;15.40;11.43;;;23.40;59.80;;;;;;5073808;28;20318;-72
2023/07/02 08:23:34;;;;;;;17.50;12.00;;;23.40;60.30;;;;;;5074198;28;20205;-72
2023/07/02 08:26:02;;;;;;;18.37;12.47;;;23.40;60.80;;;;;;5073112;28;20247;-72
2023/07/02 08:28:29;;;;;;;18.43;12.20;;;23.40;60.60;;;;;;5068504;28;20637;-72
2023/07/02 08:30:57;;;;;;;18.50;12.57;;;23.40;60.30;;;;;;5072607;28;20224;-72
2023/07/02 08:33:24;;;;;;;18.47;12.73;;;23.50;61.20;;;;;;5073540;28;20201;-72
2023/07/02 08:35:51;;;;;;;17.33;11.93;;;23.50;60.90;;;;;;5072903;28;20200;-73
2023/07/02 08:38:17;;;;;;;16.20;11.93;;;23.60;60.10;;;;;;5072892;28;20227;-72
2023/07/02 08:40:44;;;;;;;18.80;13.43;;;23.70;60.70;;;;;;5073306;28;20544;-72
2023/07/02 08:43:11;;;;;;;19.37;14.33;;;23.60;59.70;;;;;;5072811;28;20219;-72
2023/07/02 08:45:41;;;;;;;20.20;13.43;;;23.70;60.10;;;;;;5059923;28;20538;-73
2023/07/02 08:48:09;;;;;;;19.10;13.43;;;23.80;60.00;;;;;;5061534;28;20538;-72
2023/07/02 08:50:36;;;;;;;22.83;13.93;;;24.00;60.10;;;;;;5072187;28;20207;-72
2023/07/02 08:53:03;;;;;;;20.80;13.60;;;24.20;59.70;;;;;;5072893;28;20211;-72
2023/07/02 08:55:30;;;;;;;22.97;13.77;;;24.10;59.10;;;;;;5057065;28;20293;-72
2023/07/02 08:58:00;;;;;;;19.77;14.43;;;24.10;58.90;;;;;;5053160;28;20208;-72
2023/07/02 09:00:27;;;;;;;22.10;13.83;;;24.10;59.00;;;;;;5054371;28;20205;-72
2023/07/02 09:02:53;;;;;;;20.80;14.23;;;24.20;59.00;;;;;;5053248;28;20210;-73
2023/07/02 09:05:22;;;;;;;24.53;14.63;;;24.30;58.80;;;;;;5071963;28;20304;-72
2023/07/02 09:07:50;;;;;;;23.33;15.03;;;24.30;57.20;;;;;;5072446;28;20224;-72
2023/07/02 09:10:32;;;;;;;19.93;14.07;;;24.10;56.30;;;;;;5056448;28;20201;-72
2023/07/02 09:13:06;;;;;;;21.63;15.17;;;24.10;57.60;;;;;;5052478;28;20209;-71
2023/07/02 09:15:38;;;;;;;19.47;14.23;;;24.30;56.60;;;;;;5062379;28;20225;-72
2023/07/02 09:18:15;;;;;;;22.43;14.33;;;24.20;57.10;;;;;;5054785;28;20202;-73
2023/07/02 09:20:44;;;;;;;20.70;13.97;;;24.40;57.40;;;;;;5072826;28;20293;-71
2023/07/02 09:23:11;;;;;;;23.13;13.80;;;24.50;56.60;;;;;;5072152;28;20205;-72
2023/07/02 09:25:39;;;;;;;20.93;14.30;;;24.60;56.70;;;;;;5072356;28;20555;-72
2023/07/02 09:28:15;;;;;;;18.80;13.93;;;24.70;56.30;;;;;;5072186;28;20763;-72
2023/07/02 09:30:51;;;;;;;22.07;14.53;;;24.70;55.90;;;;;;5072407;28;20197;-72
2023/07/02 09:33:18;;;;;;;23.37;14.60;;;24.70;57.20;;;;;;5066951;28;20225;-72
2023/07/02 09:35:46;;;;;;;23.47;14.77;;;24.80;55.70;;;;;;5059669;28;20193;-73
2023/07/02 09:38:14;;;;;;;21.23;14.53;;;24.80;55.10;;;;;;5044099;28;20545;-72
2023/07/02 09:40:47;;;;;;;22.63;15.00;;;24.70;55.50;;;;;;5051885;28;20240;-72
2023/07/02 09:43:15;;;;;;;22.63;14.20;;;24.80;56.20;;;;;;5064254;28;20205;-71
2023/07/02 09:45:44;;;;;;;20.40;14.67;;;24.90;55.50;;;;;;5055866;28;20283;-72
2023/07/02 09:48:14;;;;;;;19.17;13.60;;;25.00;55.20;;;;;;5063280;28;20647;-71
2023/07/02 09:50:42;;;;;;;21.83;15.07;;;25.10;54.80;;;;;;5072144;28;20205;-71
2023/07/02 09:53:10;;;;;;;24.53;15.57;;;25.10;54.70;;;;;;5071936;28;20223;-72
2023/07/02 09:55:39;;;;;;;22.23;15.03;;;25.10;54.80;;;;;;5071927;28;20229;-74
2023/07/02 09:58:07;;;;;;;22.57;14.50;;;25.00;54.50;;;;;;5072300;28;20205;-72
2023/07/02 10:00:34;;;;;;;21.30;14.03;;;25.20;55.10;;;;;;5067172;28;20706;-71
2023/07/02 10:03:04;;;;;;;19.83;14.67;;;25.30;55.40;;;;;;5060695;28;20237;-71
2023/07/02 10:05:32;;;;;;;18.20;12.93;;;25.30;54.60;;;;;;5052742;28;20229;-71
2023/07/02 10:08:12;;;;;;;24.37;14.73;;;25.30;53.30;;;;;;5066054;28;20221;-69
2023/07/02 10:10:40;;;;;;;23.47;14.53;;;25.40;54.30;;;;;;5072074;28;20640;-73
2023/07/02 10:13:07;;;;;;;23.67;15.00;;;25.30;53.30;;;;;;5070065;28;20220;-71
2023/07/02 10:15:37;;;;;;;19.13;13.63;;;25.30;54.80;;;;;;5071434;28;20724;-72
2023/07/02 10:18:05;;;;;;;17.40;13.40;;;25.50;52.90;;;;;;5058624;28;20202;-73
2023/07/02 10:20:37;;;;;;;19.17;13.53;;;25.60;53.10;;;;;;5061813;28;20221;-72
2023/07/02 10:23:04;;;;;;;18.77;13.80;;;25.90;52.80;;;;;;5071706;28;20217;-71
2023/07/02 10:25:34;;;;;;;19.47;13.57;;;26.00;52.40;;;;;;5072197;28;20225;-71
2023/07/02 10:28:02;;;;;;;19.80;13.70;;;26.20;52.30;;;;;;5070415;28;20201;-71
2023/07/02 10:30:33;;;;;;;20.20;13.83;;;26.20;51.70;;;;;;5075092;28;20209;-72
2023/07/02 10:33:11;;;;;;;20.77;14.53;;;26.10;52.40;;;;;;5075642;28;20213;-71
2023/07/02 10:35:39;;;;;;;22.80;14.60;;;26.20;51.30;;;;;;5076281;28;20190;-71
2023/07/02 10:38:07;;;;;;;18.63;13.20;;;26.00;51.70;;;;;;5075823;28;20225;-72
2023/07/02 10:40:34;;;;;;;21.57;13.77;;;25.80;52.60;;;;;;5076441;28;20224;-72
2023/07/02 10:43:02;;;;;;;19.30;13.10;;;25.70;51.40;;;;;;5057849;28;20230;-72
2023/07/02 10:45:33;;;;;;;20.13;14.30;;;25.80;51.80;;;;;;5055990;28;20211;-73
2023/07/02 10:48:02;;;;;;;20.57;13.00;;;26.00;52.30;;;;;;5072085;28;20208;-72
2023/07/02 10:50:29;;;;;;;20.63;13.37;;;26.10;51.60;;;;;;5076334;28;20220;-72
2023/07/02 10:52:55;;;;;;;19.93;12.60;;;26.20;51.20;;;;;;5076154;28;20209;-73
2023/07/02 10:55:24;;;;;;;19.67;13.20;;;26.30;50.40;;;;;;5073979;28;20206;-72
2023/07/02 10:58:02;;;;;;;17.67;12.57;;;26.50;51.00;;;;;;5064813;28;20650;-72
2023/07/02 11:00:30;;;;;;;17.77;12.17;;;26.50;49.80;;;;;;5070370;28;20197;-71
2023/07/02 11:02:57;;;;;;;18.67;13.27;;;26.60;49.80;;;;;;5056658;28;20229;-71
2023/07/02 11:05:24;;;;;;;23.50;14.60;;;26.70;49.90;;;;;;5070365;28;20538;-71
2023/07/02 11:07:56;;;;;;;20.77;12.97;;;26.70;49.30;;;;;;5075515;28;20580;-71
2023/07/02 11:10:27;;;;;;;17.60;13.50;;;26.60;49.80;;;;;;5071125;28;20289;-72
2023/07/02 11:12:54;;;;;;;18.70;13.00;;;26.70;51.60;;;;;;5064359;28;20198;-72
2023/07/02 11:15:21;;;;;;;18.90;13.83;;;26.90;50.60;;;;;;5073013;28;20213;-72
2023/07/02 11:17:49;;;;;;;18.23;13.10;;;26.90;49.50;;;;;;5073506;28;20194;-72
2023/07/02 11:20:19;;;;;;;18.50;13.83;;;26.60;49.30;;;;;;5075486;28;20232;-71
2023/07/02 11:22:47;;;;;;;17.03;13.53;;;26.50;49.30;;;;;;5075404;28;20208;-72
2023/07/02 11:25:16;;;;;;;25.40;14.47;;;26.60;50.20;;;;;;5075295;28;20205;-71
2023/07/02 11:27:47;;;;;;;15.97;12.50;;;26.60;49.20;;;;;;5075255;28;20307;-72
2023/07/02 11:30:14;;;;;;;20.87;14.57;;;26.70;50.50;;;;;;5075206;28;20201;-71
2023/07/02 11:32:54;;;;;;;19.23;13.87;;;26.70;49.00;;;;;;5069923;28;20218;-71
2023/07/02 11:35:22;;;;;;;19.57;13.47;;;26.70;49.10;;;;;;5073559;28;20200;-72
2023/07/02 11:37:49;;;;;;;16.07;12.57;;;26.70;49.60;;;;;;5069922;28;20201;-71
2023/07/02 11:40:18;;;;;;;15.40;12.73;;;26.90;49.80;;;;;;5054780;28;20638;-72
2023/07/02 11:42:45;;;;;;;19.87;13.03;;;27.10;47.80;;;;;;5057660;28;20687;-73
2023/07/02 11:45:12;;;;;;;18.97;12.93;;;27.00;48.30;;;;;;5055548;28;20206;-72
2023/07/02 11:47:39;;;;;;;18.97;14.23;;;27.10;48.00;;;;;;5054895;28;20223;-73
2023/07/02 11:50:09;;;;;;;18.73;13.83;;;27.20;48.80;;;;;;5070024;28;20705;-71
2023/07/02 11:52:35;;;;;;;20.27;14.00;;;27.20;48.10;;;;;;5059882;28;20199;-71
2023/07/02 11:55:02;;;;;;;23.73;13.33;;;27.30;48.40;;;;;;5054470;28;20298;-72
2023/07/02 11:57:29;;;;;;;21.43;13.40;;;27.40;46.00;;;;;;5054544;28;20202;-70
2023/07/02 11:59:56;;;;;;;18.50;12.83;;;27.40;45.10;;;;;;5054351;28;20220;-71
2023/07/02 12:02:23;;;;;;;19.50;13.90;;;27.50;45.40;;;;;;5073050;28;20249;-71
2023/07/02 12:04:49;;;;;;;17.47;12.87;;;27.60;45.40;;;;;;5073825;28;20188;-71
2023/07/02 12:07:21;;;;;;;18.20;13.90;;;27.70;46.20;;;;;;5074354;28;20226;-71
2023/07/02 12:09:47;;;;;;;21.90;14.20;;;27.80;46.10;;;;;;5073979;28;20236;-71
2023/07/02 12:12:14;;;;;;;18.90;14.50;;;27.70;46.00;;;;;;5074342;28;20700;-71
2023/07/02 12:14:43;;;;;;;17.60;13.73;;;27.60;45.80;;;;;;5070066;28;20212;-72
2023/07/02 12:17:12;;;;;;;19.80;13.83;;;27.50;46.00;;;;;;5066119;28;20194;-70
2023/07/02 12:19:39;;;;;;;17.13;13.33;;;27.70;45.50;;;;;;5056358;28;20231;-71
2023/07/02 12:22:06;;;;;;;18.53;13.87;;;27.90;46.00;;;;;;5061510;28;20201;-71
2023/07/02 12:24:34;;;;;;;21.60;14.00;;;28.00;45.80;;;;;;5074244;28;20213;-71
2023/07/02 12:27:01;;;;;;;18.80;13.90;;;28.10;44.30;;;;;;5038621;28;20232;-70
2023/07/02 12:29:27;;;;;;;17.23;12.73;;;28.20;44.50;;;;;;5074811;28;20226;-70
2023/07/02 12:31:54;;;;;;;18.57;14.10;;;28.20;43.30;;;;;;5058502;28;20213;-71
2023/07/02 12:34:21;;;;;;;18.33;13.37;;;28.10;44.70;;;;;;5065316;28;20291;-72
2023/07/02 12:36:48;;;;;;;17.47;13.57;;;28.20;44.00;;;;;;5057425;28;20634;-72
2023/07/02 12:39:15;;;;;;;18.20;12.70;;;28.30;44.30;;;;;;5074064;28;20228;-71
2023/07/02 12:41:43;;;;;;;18.10;13.77;;;28.40;44.30;;;;;;5074211;28;20644;-70